Slupsk, Poland

2:28 PM CEST on July 30, 2014 (GMT +0200)
IPOMORSK9 Elev 23 ft | 54.59 °N, 16.86 °E | Change Station

Current weather conditions updated 3 seconds ago

Clear
Clear
74.5 °F
Feels Like 75 °F
N
3.2
Wind Variable Wind from North
Gusts 6.9 mph

Today is forecast to be Much Warmer than yesterday. Showers late tonight.

Today
High -- | Low -- °F
--% Chance of Precip.
Yesterday
High -- | Low -- °F
Precip. -- in
4:59 AM 8:56 PM
Waxing Crescent, 11% visible
Pressure 29.74 in
Visibility -9999.0 miles
Clouds
Heat Index 75 °F
Dew Point 68 °F
Humidity 79%
Rainfall 0.00 in
Snow Depth Not available.
UV 0.0 out of 12
Pollen Not available.
Air Quality Not available.
Flu Activity Not available.
METAR EPGD 301200Z 18007KT 110V230 CAVOK 30/14 Q1007

More Conditions Fewer Conditions

Pressure 29.74 in
Visibility -9999.0 miles
Clouds
Heat Index 75 °F
Dew Point 68 °F
Humidity 79%
Rainfall 0.00 in
Snow Depth Not available.
UV 0.0 out of 12
Pollen Not available.
Air Quality Not available.
Flu Activity Not available.
METAR EPGD 301200Z 18007KT 110V230 CAVOK 30/14 Q1007

More Conditions Fewer Conditions

10-Day Weather Forecast

Almanac

Astronomy

Jul. 30, 2014 Rise Set
Actual Time 4:59 AM CEST 8:56 PM CEST
Civil Twilight 4:13 AM CEST 9:41 PM CEST
Nautical Twilight 3:06 AM CEST 10:47 PM CEST
Astronomical Twilight 1:30 AM CEST 12:25 AM CEST
Moon 8:55 AM CEST 9:45 PM CEST
Length of Visible Light 17h 28m
Length of Day
15h 56m
Tomorrow will be 3m 32s shorter.
Waxing Crescent, 11% of the Moon is Illuminated
Today
Waxing Crescent
Aug 3
First Quarter
Aug 10
Full
Aug 17
Last Quarter
Aug 25
New

Yesterday's Extremes

Country Highs Country Lows

Community

WunderPhotos

Upload Photos

1,739,054 photos uploaded!

Nearby

Snow Depth

Not available.

Earthquake Activity

City Distance Mag. Time & Date
No recent earthquake activity has been reported nearby.
Minimum magnitude displayed is 2.5.

Coastal Water Temperatures

Place Temperature
No Stations Reporting

Nearby Weather Stations

Station Location Temp. Heat Index Dew Point Humidity Wind Precip. Elev Updated Type
Ustka 74.5 °F 75 °F 68 °F 79% North  at  3.2 mph 0.00 in / hr 23 ft 2:28 PM CEST Rapid Fire

Show More Stations Show Fewer Stations